sensor_id;sensor_type;location;lat;lon;timestamp;P1;durP1;ratioP1;P2;durP2;ratioP2
16890;SDS011;8562;52.246;20.966;2023-08-06T00:00:16;16.90;;;8.73;;
16890;SDS011;8562;52.246;20.966;2023-08-06T00:02:41;18.87;;;8.83;;
16890;SDS011;8562;52.246;20.966;2023-08-06T00:05:07;15.13;;;9.43;;
16890;SDS011;8562;52.246;20.966;2023-08-06T00:07:32;18.33;;;9.50;;
16890;SDS011;8562;52.246;20.966;2023-08-06T00:09:57;19.07;;;10.10;;
16890;SDS011;8562;52.246;20.966;2023-08-06T00:12:23;14.17;;;9.63;;
16890;SDS011;8562;52.246;20.966;2023-08-06T00:14:51;15.20;;;9.53;;
16890;SDS011;8562;52.246;20.966;2023-08-06T00:17:17;14.77;;;8.70;;
16890;SDS011;8562;52.246;20.966;2023-08-06T00:19:42;15.73;;;9.53;;
16890;SDS011;8562;52.246;20.966;2023-08-06T00:22:07;20.67;;;9.60;;
16890;SDS011;8562;52.246;20.966;2023-08-06T00:24:34;17.47;;;9.53;;
16890;SDS011;8562;52.246;20.966;2023-08-06T00:26:59;15.63;;;9.03;;
16890;SDS011;8562;52.246;20.966;2023-08-06T00:29:24;15.17;;;8.97;;
16890;SDS011;8562;52.246;20.966;2023-08-06T00:31:49;18.00;;;10.03;;
16890;SDS011;8562;52.246;20.966;2023-08-06T00:34:15;16.70;;;8.73;;
16890;SDS011;8562;52.246;20.966;2023-08-06T00:36:41;13.90;;;9.57;;
16890;SDS011;8562;52.246;20.966;2023-08-06T00:39:06;14.47;;;9.87;;
16890;SDS011;8562;52.246;20.966;2023-08-06T00:41:32;12.13;;;7.77;;
16890;SDS011;8562;52.246;20.966;2023-08-06T00:43:57;13.37;;;8.93;;
16890;SDS011;8562;52.246;20.966;2023-08-06T00:46:23;11.70;;;7.27;;
16890;SDS011;8562;52.246;20.966;2023-08-06T00:48:48;12.47;;;8.80;;
16890;SDS011;8562;52.246;20.966;2023-08-06T00:51:14;12.33;;;8.70;;
16890;SDS011;8562;52.246;20.966;2023-08-06T00:53:39;9.10;;;7.30;;
16890;SDS011;8562;52.246;20.966;2023-08-06T00:56:05;12.37;;;7.70;;
16890;SDS011;8562;52.246;20.966;2023-08-06T00:58:30;10.53;;;7.87;;
16890;SDS011;8562;52.246;20.966;2023-08-06T01:00:56;10.63;;;7.10;;
16890;SDS011;8562;52.246;20.966;2023-08-06T01:03:22;11.60;;;8.63;;
16890;SDS011;8562;52.246;20.966;2023-08-06T01:05:48;10.43;;;7.70;;
16890;SDS011;8562;52.246;20.966;2023-08-06T01:15:43;10.10;;;7.87;;
16890;SDS011;8562;52.246;20.966;2023-08-06T01:18:10;13.83;;;8.23;;
16890;SDS011;8562;52.246;20.966;2023-08-06T01:20:35;10.10;;;7.77;;
16890;SDS011;8562;52.246;20.966;2023-08-06T01:23:01;11.40;;;8.43;;
16890;SDS011;8562;52.246;20.966;2023-08-06T01:25:28;11.23;;;7.93;;
16890;SDS011;8562;52.246;20.966;2023-08-06T01:27:55;9.33;;;7.40;;
16890;SDS011;8562;52.246;20.966;2023-08-06T01:30:27;10.13;;;7.30;;
16890;SDS011;8562;52.246;20.966;2023-08-06T01:32:54;11.13;;;7.90;;
16890;SDS011;8562;52.246;20.966;2023-08-06T01:35:26;11.27;;;8.00;;
16890;SDS011;8562;52.246;20.966;2023-08-06T01:37:52;9.77;;;7.43;;
16890;SDS011;8562;52.246;20.966;2023-08-06T01:40:17;11.70;;;8.10;;
16890;SDS011;8562;52.246;20.966;2023-08-06T01:42:43;9.17;;;7.70;;
16890;SDS011;8562;52.246;20.966;2023-08-06T01:45:08;9.53;;;7.40;;
16890;SDS011;8562;52.246;20.966;2023-08-06T01:47:34;8.70;;;6.80;;
16890;SDS011;8562;52.246;20.966;2023-08-06T01:49:59;11.37;;;7.53;;
16890;SDS011;8562;52.246;20.966;2023-08-06T01:52:25;10.60;;;8.07;;
16890;SDS011;8562;52.246;20.966;2023-08-06T01:54:51;11.20;;;7.20;;
16890;SDS011;8562;52.246;20.966;2023-08-06T01:57:16;8.80;;;6.80;;
16890;SDS011;8562;52.246;20.966;2023-08-06T01:59:42;10.80;;;7.37;;
16890;SDS011;8562;52.246;20.966;2023-08-06T02:02:07;9.07;;;7.53;;
16890;SDS011;8562;52.246;20.966;2023-08-06T02:04:32;9.03;;;7.20;;
16890;SDS011;8562;52.246;20.966;2023-08-06T02:06:58;11.20;;;7.73;;
16890;SDS011;8562;52.246;20.966;2023-08-06T02:09:23;10.00;;;7.37;;
16890;SDS011;8562;52.246;20.966;2023-08-06T02:11:48;13.23;;;8.03;;
16890;SDS011;8562;52.246;20.966;2023-08-06T02:14:13;9.80;;;7.83;;
16890;SDS011;8562;52.246;20.966;2023-08-06T02:16:39;10.20;;;7.60;;
16890;SDS011;8562;52.246;20.966;2023-08-06T02:19:04;10.57;;;7.93;;
16890;SDS011;8562;52.246;20.966;2023-08-06T02:21:29;9.50;;;7.50;;
16890;SDS011;8562;52.246;20.966;2023-08-06T02:23:55;9.27;;;6.40;;
16890;SDS011;8562;52.246;20.966;2023-08-06T02:26:20;10.13;;;7.57;;
16890;SDS011;8562;52.246;20.966;2023-08-06T02:28:45;10.83;;;7.83;;
16890;SDS011;8562;52.246;20.966;2023-08-06T02:31:13;12.67;;;7.90;;
16890;SDS011;8562;52.246;20.966;2023-08-06T02:33:38;8.97;;;6.37;;
16890;SDS011;8562;52.246;20.966;2023-08-06T02:36:03;9.83;;;7.20;;
16890;SDS011;8562;52.246;20.966;2023-08-06T02:38:29;12.53;;;7.60;;
16890;SDS011;8562;52.246;20.966;2023-08-06T02:40:55;13.17;;;7.80;;
16890;SDS011;8562;52.246;20.966;2023-08-06T02:43:22;12.60;;;7.37;;
16890;SDS011;8562;52.246;20.966;2023-08-06T02:45:48;10.20;;;7.07;;
16890;SDS011;8562;52.246;20.966;2023-08-06T02:48:13;10.30;;;7.17;;
16890;SDS011;8562;52.246;20.966;2023-08-06T02:50:41;10.60;;;7.53;;
16890;SDS011;8562;52.246;20.966;2023-08-06T02:53:07;9.47;;;7.43;;
16890;SDS011;8562;52.246;20.966;2023-08-06T02:55:33;10.97;;;8.13;;
16890;SDS011;8562;52.246;20.966;2023-08-06T02:58:00;8.70;;;7.80;;
16890;SDS011;8562;52.246;20.966;2023-08-06T03:00:26;13.40;;;8.47;;
16890;SDS011;8562;52.246;20.966;2023-08-06T03:02:51;9.40;;;7.50;;
16890;SDS011;8562;52.246;20.966;2023-08-06T03:05:23;9.30;;;6.93;;
16890;SDS011;8562;52.246;20.966;2023-08-06T03:07:48;13.47;;;8.23;;
16890;SDS011;8562;52.246;20.966;2023-08-06T03:10:20;11.23;;;8.17;;
16890;SDS011;8562;52.246;20.966;2023-08-06T03:12:47;11.23;;;7.87;;
16890;SDS011;8562;52.246;20.966;2023-08-06T03:15:13;12.67;;;8.57;;
16890;SDS011;8562;52.246;20.966;2023-08-06T03:17:40;10.67;;;8.23;;
16890;SDS011;8562;52.246;20.966;2023-08-06T03:20:07;12.73;;;8.70;;
16890;SDS011;8562;52.246;20.966;2023-08-06T03:22:33;13.33;;;8.20;;
16890;SDS011;8562;52.246;20.966;2023-08-06T03:24:59;13.70;;;9.07;;
16890;SDS011;8562;52.246;20.966;2023-08-06T03:27:25;13.93;;;8.97;;
16890;SDS011;8562;52.246;20.966;2023-08-06T03:29:51;13.40;;;8.20;;
16890;SDS011;8562;52.246;20.966;2023-08-06T03:32:19;10.83;;;8.83;;
16890;SDS011;8562;52.246;20.966;2023-08-06T03:34:45;13.80;;;9.23;;
16890;SDS011;8562;52.246;20.966;2023-08-06T03:37:10;13.80;;;8.97;;
16890;SDS011;8562;52.246;20.966;2023-08-06T03:39:36;14.60;;;9.83;;
16890;SDS011;8562;52.246;20.966;2023-08-06T03:42:02;12.77;;;10.17;;
16890;SDS011;8562;52.246;20.966;2023-08-06T03:44:27;15.57;;;9.47;;
16890;SDS011;8562;52.246;20.966;2023-08-06T03:46:53;16.20;;;10.73;;
16890;SDS011;8562;52.246;20.966;2023-08-06T03:49:19;16.07;;;9.87;;
16890;SDS011;8562;52.246;20.966;2023-08-06T03:51:45;16.87;;;9.20;;
16890;SDS011;8562;52.246;20.966;2023-08-06T03:54:11;16.57;;;10.57;;
16890;SDS011;8562;52.246;20.966;2023-08-06T03:56:36;11.00;;;9.13;;
16890;SDS011;8562;52.246;20.966;2023-08-06T03:59:01;16.50;;;10.50;;
16890;SDS011;8562;52.246;20.966;2023-08-06T04:01:27;14.80;;;10.67;;
16890;SDS011;8562;52.246;20.966;2023-08-06T04:03:52;13.93;;;9.73;;
16890;SDS011;8562;52.246;20.966;2023-08-06T04:06:18;15.00;;;11.27;;
16890;SDS011;8562;52.246;20.966;2023-08-06T04:08:43;16.73;;;11.33;;
16890;SDS011;8562;52.246;20.966;2023-08-06T04:11:08;15.93;;;11.77;;
16890;SDS011;8562;52.246;20.966;2023-08-06T04:13:34;17.67;;;10.57;;
16890;SDS011;8562;52.246;20.966;2023-08-06T04:16:02;17.27;;;11.50;;
16890;SDS011;8562;52.246;20.966;2023-08-06T04:18:28;20.97;;;12.80;;
16890;SDS011;8562;52.246;20.966;2023-08-06T04:20:54;20.37;;;13.00;;
16890;SDS011;8562;52.246;20.966;2023-08-06T04:23:20;18.63;;;12.00;;
16890;SDS011;8562;52.246;20.966;2023-08-06T04:25:45;18.00;;;12.13;;
16890;SDS011;8562;52.246;20.966;2023-08-06T04:28:12;16.27;;;12.27;;
16890;SDS011;8562;52.246;20.966;2023-08-06T04:30:38;18.70;;;12.53;;
16890;SDS011;8562;52.246;20.966;2023-08-06T04:33:03;19.13;;;12.13;;
16890;SDS011;8562;52.246;20.966;2023-08-06T04:35:28;21.00;;;13.03;;
16890;SDS011;8562;52.246;20.966;2023-08-06T04:37:55;21.93;;;13.47;;
16890;SDS011;8562;52.246;20.966;2023-08-06T04:40:21;18.67;;;14.17;;
16890;SDS011;8562;52.246;20.966;2023-08-06T04:42:46;19.13;;;12.07;;
16890;SDS011;8562;52.246;20.966;2023-08-06T04:45:11;21.90;;;14.30;;
16890;SDS011;8562;52.246;20.966;2023-08-06T04:47:36;20.60;;;12.43;;
16890;SDS011;8562;52.246;20.966;2023-08-06T04:50:02;17.10;;;12.73;;
16890;SDS011;8562;52.246;20.966;2023-08-06T04:52:27;17.97;;;12.93;;
16890;SDS011;8562;52.246;20.966;2023-08-06T04:54:53;17.97;;;13.37;;
16890;SDS011;8562;52.246;20.966;2023-08-06T04:57:19;17.27;;;12.20;;
16890;SDS011;8562;52.246;20.966;2023-08-06T04:59:45;15.13;;;12.90;;
16890;SDS011;8562;52.246;20.966;2023-08-06T05:02:10;18.30;;;12.10;;
16890;SDS011;8562;52.246;20.966;2023-08-06T05:04:35;18.63;;;13.97;;
16890;SDS011;8562;52.246;20.966;2023-08-06T05:07:01;16.07;;;13.17;;
16890;SDS011;8562;52.246;20.966;2023-08-06T05:09:26;17.53;;;11.97;;
16890;SDS011;8562;52.246;20.966;2023-08-06T05:11:51;20.67;;;13.23;;
16890;SDS011;8562;52.246;20.966;2023-08-06T05:14:16;15.03;;;12.77;;
16890;SDS011;8562;52.246;20.966;2023-08-06T05:16:42;17.67;;;12.47;;
16890;SDS011;8562;52.246;20.966;2023-08-06T05:19:07;15.30;;;11.27;;
16890;SDS011;8562;52.246;20.966;2023-08-06T05:21:32;18.37;;;13.73;;
16890;SDS011;8562;52.246;20.966;2023-08-06T05:23:57;14.70;;;11.73;;
16890;SDS011;8562;52.246;20.966;2023-08-06T05:26:23;16.07;;;11.63;;
16890;SDS011;8562;52.246;20.966;2023-08-06T05:28:48;12.33;;;10.73;;
16890;SDS011;8562;52.246;20.966;2023-08-06T05:31:13;14.20;;;11.07;;
16890;SDS011;8562;52.246;20.966;2023-08-06T05:33:39;14.33;;;10.90;;
16890;SDS011;8562;52.246;20.966;2023-08-06T05:36:04;11.97;;;10.37;;
16890;SDS011;8562;52.246;20.966;2023-08-06T05:38:29;11.23;;;8.97;;
16890;SDS011;8562;52.246;20.966;2023-08-06T05:40:55;10.63;;;9.43;;
16890;SDS011;8562;52.246;20.966;2023-08-06T05:43:21;14.07;;;10.63;;
16890;SDS011;8562;52.246;20.966;2023-08-06T05:45:46;9.60;;;8.60;;
16890;SDS011;8562;52.246;20.966;2023-08-06T05:48:12;14.87;;;9.53;;
16890;SDS011;8562;52.246;20.966;2023-08-06T05:50:37;13.93;;;9.00;;
16890;SDS011;8562;52.246;20.966;2023-08-06T05:53:02;12.60;;;8.83;;
16890;SDS011;8562;52.246;20.966;2023-08-06T05:55:28;10.37;;;9.10;;
16890;SDS011;8562;52.246;20.966;2023-08-06T05:57:53;9.73;;;8.60;;
16890;SDS011;8562;52.246;20.966;2023-08-06T06:00:18;12.23;;;8.07;;
16890;SDS011;8562;52.246;20.966;2023-08-06T06:02:45;9.07;;;7.87;;
16890;SDS011;8562;52.246;20.966;2023-08-06T06:05:10;10.10;;;7.23;;
16890;SDS011;8562;52.246;20.966;2023-08-06T06:07:36;8.70;;;6.67;;
16890;SDS011;8562;52.246;20.966;2023-08-06T06:10:01;8.50;;;6.47;;
16890;SDS011;8562;52.246;20.966;2023-08-06T06:12:26;7.03;;;6.33;;
16890;SDS011;8562;52.246;20.966;2023-08-06T06:14:51;9.23;;;6.20;;
16890;SDS011;8562;52.246;20.966;2023-08-06T06:17:17;7.90;;;6.20;;
16890;SDS011;8562;52.246;20.966;2023-08-06T06:19:42;6.40;;;5.80;;
16890;SDS011;8562;52.246;20.966;2023-08-06T06:22:07;7.23;;;4.90;;
16890;SDS011;8562;52.246;20.966;2023-08-06T06:24:33;6.97;;;6.17;;
16890;SDS011;8562;52.246;20.966;2023-08-06T06:26:58;8.40;;;5.80;;
16890;SDS011;8562;52.246;20.966;2023-08-06T06:29:23;6.33;;;5.53;;
16890;SDS011;8562;52.246;20.966;2023-08-06T06:31:49;6.60;;;5.63;;
16890;SDS011;8562;52.246;20.966;2023-08-06T06:34:14;5.87;;;5.27;;
16890;SDS011;8562;52.246;20.966;2023-08-06T06:36:40;7.33;;;5.53;;
16890;SDS011;8562;52.246;20.966;2023-08-06T06:39:05;6.03;;;5.43;;
16890;SDS011;8562;52.246;20.966;2023-08-06T06:41:30;8.90;;;5.80;;
16890;SDS011;8562;52.246;20.966;2023-08-06T06:44:03;7.60;;;5.53;;
16890;SDS011;8562;52.246;20.966;2023-08-06T06:46:29;8.53;;;5.90;;
16890;SDS011;8562;52.246;20.966;2023-08-06T06:48:54;7.33;;;5.70;;
16890;SDS011;8562;52.246;20.966;2023-08-06T06:51:19;7.00;;;6.13;;
16890;SDS011;8562;52.246;20.966;2023-08-06T06:53:44;9.13;;;6.20;;
16890;SDS011;8562;52.246;20.966;2023-08-06T06:56:10;6.80;;;6.10;;
16890;SDS011;8562;52.246;20.966;2023-08-06T06:58:35;7.93;;;5.77;;
16890;SDS011;8562;52.246;20.966;2023-08-06T07:01:00;7.27;;;6.10;;
16890;SDS011;8562;52.246;20.966;2023-08-06T07:03:26;6.07;;;5.37;;
16890;SDS011;8562;52.246;20.966;2023-08-06T07:05:51;6.20;;;5.60;;
16890;SDS011;8562;52.246;20.966;2023-08-06T07:08:16;6.87;;;5.70;;
16890;SDS011;8562;52.246;20.966;2023-08-06T07:10:42;7.43;;;6.63;;
16890;SDS011;8562;52.246;20.966;2023-08-06T07:13:08;7.50;;;6.20;;
16890;SDS011;8562;52.246;20.966;2023-08-06T07:15:33;6.93;;;6.03;;
16890;SDS011;8562;52.246;20.966;2023-08-06T07:17:58;7.50;;;6.13;;
16890;SDS011;8562;52.246;20.966;2023-08-06T07:20:24;6.73;;;5.60;;
16890;SDS011;8562;52.246;20.966;2023-08-06T07:22:49;11.30;;;6.27;;
16890;SDS011;8562;52.246;20.966;2023-08-06T07:25:15;8.77;;;5.60;;
16890;SDS011;8562;52.246;20.966;2023-08-06T07:27:40;8.97;;;6.40;;
16890;SDS011;8562;52.246;20.966;2023-08-06T07:30:06;7.87;;;5.87;;
16890;SDS011;8562;52.246;20.966;2023-08-06T07:32:31;9.43;;;5.90;;
16890;SDS011;8562;52.246;20.966;2023-08-06T07:34:57;7.20;;;6.50;;
16890;SDS011;8562;52.246;20.966;2023-08-06T07:37:25;10.40;;;6.40;;
16890;SDS011;8562;52.246;20.966;2023-08-06T07:39:50;7.60;;;5.60;;
16890;SDS011;8562;52.246;20.966;2023-08-06T07:42:16;7.40;;;6.27;;
16890;SDS011;8562;52.246;20.966;2023-08-06T07:44:41;6.67;;;5.60;;
16890;SDS011;8562;52.246;20.966;2023-08-06T07:47:06;9.33;;;6.37;;
16890;SDS011;8562;52.246;20.966;2023-08-06T07:49:31;7.73;;;6.20;;
16890;SDS011;8562;52.246;20.966;2023-08-06T07:51:57;8.20;;;6.30;;
16890;SDS011;8562;52.246;20.966;2023-08-06T07:54:22;7.47;;;6.67;;
16890;SDS011;8562;52.246;20.966;2023-08-06T07:56:49;9.00;;;6.07;;
16890;SDS011;8562;52.246;20.966;2023-08-06T07:59:14;9.73;;;6.47;;
16890;SDS011;8562;52.246;20.966;2023-08-06T08:01:39;8.17;;;5.80;;
16890;SDS011;8562;52.246;20.966;2023-08-06T08:04:05;9.33;;;6.10;;
16890;SDS011;8562;52.246;20.966;2023-08-06T08:06:30;7.00;;;6.30;;
16890;SDS011;8562;52.246;20.966;2023-08-06T08:08:55;10.67;;;5.67;;
16890;SDS011;8562;52.246;20.966;2023-08-06T08:11:21;8.33;;;7.07;;
16890;SDS011;8562;52.246;20.966;2023-08-06T08:13:46;6.33;;;5.73;;
16890;SDS011;8562;52.246;20.966;2023-08-06T08:16:11;7.83;;;5.73;;
16890;SDS011;8562;52.246;20.966;2023-08-06T08:18:37;7.10;;;6.40;;
16890;SDS011;8562;52.246;20.966;2023-08-06T08:21:02;6.90;;;6.07;;
16890;SDS011;8562;52.246;20.966;2023-08-06T08:23:27;6.20;;;5.50;;
16890;SDS011;8562;52.246;20.966;2023-08-06T08:25:52;9.03;;;6.30;;
16890;SDS011;8562;52.246;20.966;2023-08-06T08:28:18;8.17;;;6.27;;
16890;SDS011;8562;52.246;20.966;2023-08-06T08:30:43;9.33;;;6.37;;
16890;SDS011;8562;52.246;20.966;2023-08-06T08:33:09;9.87;;;5.73;;
16890;SDS011;8562;52.246;20.966;2023-08-06T08:35:34;7.93;;;6.00;;
16890;SDS011;8562;52.246;20.966;2023-08-06T08:38:01;8.47;;;5.47;;
16890;SDS011;8562;52.246;20.966;2023-08-06T08:40:29;10.20;;;5.40;;
16890;SDS011;8562;52.246;20.966;2023-08-06T08:42:55;6.30;;;5.40;;
16890;SDS011;8562;52.246;20.966;2023-08-06T08:45:20;8.13;;;5.50;;
16890;SDS011;8562;52.246;20.966;2023-08-06T08:47:47;8.33;;;5.00;;
16890;SDS011;8562;52.246;20.966;2023-08-06T08:50:12;7.70;;;5.80;;
16890;SDS011;8562;52.246;20.966;2023-08-06T08:52:39;10.33;;;5.50;;
16890;SDS011;8562;52.246;20.966;2023-08-06T08:55:06;6.43;;;5.80;;
16890;SDS011;8562;52.246;20.966;2023-08-06T08:57:32;6.37;;;5.13;;
16890;SDS011;8562;52.246;20.966;2023-08-06T08:59:57;8.07;;;5.27;;
16890;SDS011;8562;52.246;20.966;2023-08-06T09:02:22;9.10;;;5.63;;
16890;SDS011;8562;52.246;20.966;2023-08-06T09:04:50;6.00;;;5.37;;
16890;SDS011;8562;52.246;20.966;2023-08-06T09:07:17;7.83;;;5.40;;
16890;SDS011;8562;52.246;20.966;2023-08-06T09:09:43;7.60;;;5.27;;
16890;SDS011;8562;52.246;20.966;2023-08-06T09:12:17;6.10;;;5.33;;
16890;SDS011;8562;52.246;20.966;2023-08-06T09:14:43;7.37;;;5.30;;
16890;SDS011;8562;52.246;20.966;2023-08-06T09:17:09;5.70;;;5.20;;
16890;SDS011;8562;52.246;20.966;2023-08-06T09:19:36;5.77;;;5.20;;
16890;SDS011;8562;52.246;20.966;2023-08-06T09:22:01;6.50;;;5.50;;
16890;SDS011;8562;52.246;20.966;2023-08-06T09:24:26;5.77;;;4.67;;
16890;SDS011;8562;52.246;20.966;2023-08-06T09:26:52;5.40;;;4.77;;
16890;SDS011;8562;52.246;20.966;2023-08-06T09:29:18;5.57;;;5.07;;
16890;SDS011;8562;52.246;20.966;2023-08-06T09:31:44;6.27;;;5.00;;
16890;SDS011;8562;52.246;20.966;2023-08-06T09:34:16;12.87;;;5.27;;
16890;SDS011;8562;52.246;20.966;2023-08-06T09:36:51;5.20;;;4.70;;
16890;SDS011;8562;52.246;20.966;2023-08-06T09:39:17;5.73;;;5.23;;
16890;SDS011;8562;52.246;20.966;2023-08-06T09:41:43;6.23;;;5.10;;
16890;SDS011;8562;52.246;20.966;2023-08-06T09:44:18;10.67;;;5.30;;
16890;SDS011;8562;52.246;20.966;2023-08-06T09:46:47;8.93;;;5.23;;
16890;SDS011;8562;52.246;20.966;2023-08-06T09:49:13;6.00;;;5.40;;
16890;SDS011;8562;52.246;20.966;2023-08-06T09:51:38;5.60;;;4.83;;
16890;SDS011;8562;52.246;20.966;2023-08-06T09:54:05;5.87;;;4.70;;
16890;SDS011;8562;52.246;20.966;2023-08-06T09:56:30;7.23;;;5.60;;
16890;SDS011;8562;52.246;20.966;2023-08-06T09:59:02;6.20;;;4.97;;
16890;SDS011;8562;52.246;20.966;2023-08-06T10:01:29;5.23;;;4.30;;
16890;SDS011;8562;52.246;20.966;2023-08-06T10:03:54;10.37;;;5.17;;
16890;SDS011;8562;52.246;20.966;2023-08-06T10:06:22;7.53;;;4.60;;
16890;SDS011;8562;52.246;20.966;2023-08-06T10:08:48;8.40;;;5.37;;
16890;SDS011;8562;52.246;20.966;2023-08-06T10:11:13;5.83;;;4.57;;
16890;SDS011;8562;52.246;20.966;2023-08-06T10:13:39;7.03;;;4.80;;
16890;SDS011;8562;52.246;20.966;2023-08-06T10:16:05;6.77;;;4.20;;
16890;SDS011;8562;52.246;20.966;2023-08-06T10:18:31;5.77;;;4.73;;
16890;SDS011;8562;52.246;20.966;2023-08-06T10:20:56;6.10;;;5.00;;
16890;SDS011;8562;52.246;20.966;2023-08-06T10:23:27;5.17;;;4.63;;
16890;SDS011;8562;52.246;20.966;2023-08-06T10:25:57;5.33;;;4.83;;
16890;SDS011;8562;52.246;20.966;2023-08-06T10:28:24;5.83;;;4.90;;
16890;SDS011;8562;52.246;20.966;2023-08-06T10:30:58;5.67;;;4.53;;
16890;SDS011;8562;52.246;20.966;2023-08-06T10:33:24;6.47;;;4.60;;
16890;SDS011;8562;52.246;20.966;2023-08-06T10:36:00;4.53;;;4.10;;
16890;SDS011;8562;52.246;20.966;2023-08-06T10:38:26;4.30;;;3.90;;
16890;SDS011;8562;52.246;20.966;2023-08-06T10:43:26;5.57;;;4.67;;
16890;SDS011;8562;52.246;20.966;2023-08-06T10:45:52;4.47;;;4.07;;
16890;SDS011;8562;52.246;20.966;2023-08-06T10:48:36;6.43;;;4.50;;
16890;SDS011;8562;52.246;20.966;2023-08-06T10:51:02;4.63;;;4.23;;
16890;SDS011;8562;52.246;20.966;2023-08-06T10:53:28;6.27;;;4.80;;
16890;SDS011;8562;52.246;20.966;2023-08-06T10:55:53;4.60;;;4.20;;
16890;SDS011;8562;52.246;20.966;2023-08-06T10:58:18;4.77;;;4.20;;
16890;SDS011;8562;52.246;20.966;2023-08-06T11:00:44;7.83;;;4.37;;
16890;SDS011;8562;52.246;20.966;2023-08-06T11:03:09;4.43;;;3.83;;
16890;SDS011;8562;52.246;20.966;2023-08-06T11:05:35;5.93;;;4.23;;
16890;SDS011;8562;52.246;20.966;2023-08-06T11:08:01;4.30;;;3.90;;
16890;SDS011;8562;52.246;20.966;2023-08-06T11:10:26;6.03;;;4.47;;
16890;SDS011;8562;52.246;20.966;2023-08-06T11:12:51;5.27;;;4.07;;
16890;SDS011;8562;52.246;20.966;2023-08-06T11:15:16;4.43;;;3.80;;
16890;SDS011;8562;52.246;20.966;2023-08-06T11:17:42;4.40;;;3.93;;
16890;SDS011;8562;52.246;20.966;2023-08-06T11:20:07;4.60;;;4.13;;
16890;SDS011;8562;52.246;20.966;2023-08-06T11:22:33;3.90;;;3.50;;
16890;SDS011;8562;52.246;20.966;2023-08-06T11:24:58;5.17;;;4.07;;
16890;SDS011;8562;52.246;20.966;2023-08-06T11:27:26;5.43;;;4.23;;
16890;SDS011;8562;52.246;20.966;2023-08-06T11:29:51;5.33;;;4.10;;
16890;SDS011;8562;52.246;20.966;2023-08-06T11:32:17;5.60;;;4.10;;
16890;SDS011;8562;52.246;20.966;2023-08-06T11:34:42;4.20;;;3.83;;
16890;SDS011;8562;52.246;20.966;2023-08-06T11:37:08;4.27;;;3.90;;
16890;SDS011;8562;52.246;20.966;2023-08-06T11:39:36;6.87;;;4.50;;
16890;SDS011;8562;52.246;20.966;2023-08-06T11:42:03;6.67;;;4.40;;
16890;SDS011;8562;52.246;20.966;2023-08-06T11:44:32;5.13;;;4.63;;
16890;SDS011;8562;52.246;20.966;2023-08-06T11:47:01;6.07;;;4.00;;
16890;SDS011;8562;52.246;20.966;2023-08-06T11:52:21;5.03;;;4.03;;
16890;SDS011;8562;52.246;20.966;2023-08-06T11:55:09;6.50;;;4.40;;
16890;SDS011;8562;52.246;20.966;2023-08-06T11:57:39;3.90;;;3.60;;
16890;SDS011;8562;52.246;20.966;2023-08-06T12:00:11;4.87;;;4.37;;
16890;SDS011;8562;52.246;20.966;2023-08-06T12:02:44;6.10;;;4.10;;
16890;SDS011;8562;52.246;20.966;2023-08-06T12:05:13;4.60;;;4.07;;
16890;SDS011;8562;52.246;20.966;2023-08-06T12:07:41;8.63;;;4.20;;
16890;SDS011;8562;52.246;20.966;2023-08-06T12:10:07;6.27;;;3.83;;
16890;SDS011;8562;52.246;20.966;2023-08-06T12:12:32;4.00;;;3.70;;
16890;SDS011;8562;52.246;20.966;2023-08-06T12:14:57;5.47;;;4.13;;
16890;SDS011;8562;52.246;20.966;2023-08-06T12:17:24;4.40;;;4.00;;
16890;SDS011;8562;52.246;20.966;2023-08-06T12:19:49;4.37;;;3.77;;
16890;SDS011;8562;52.246;20.966;2023-08-06T12:22:15;7.27;;;5.03;;
16890;SDS011;8562;52.246;20.966;2023-08-06T12:24:43;5.70;;;4.70;;
16890;SDS011;8562;52.246;20.966;2023-08-06T12:27:09;5.60;;;4.40;;
16890;SDS011;8562;52.246;20.966;2023-08-06T12:29:35;7.03;;;4.70;;
16890;SDS011;8562;52.246;20.966;2023-08-06T12:32:00;4.80;;;4.40;;
16890;SDS011;8562;52.246;20.966;2023-08-06T12:34:26;4.80;;;4.10;;
16890;SDS011;8562;52.246;20.966;2023-08-06T12:36:51;6.20;;;4.83;;
16890;SDS011;8562;52.246;20.966;2023-08-06T12:39:16;5.53;;;5.03;;
16890;SDS011;8562;52.246;20.966;2023-08-06T12:41:42;6.63;;;4.70;;
16890;SDS011;8562;52.246;20.966;2023-08-06T12:44:08;4.50;;;4.10;;
16890;SDS011;8562;52.246;20.966;2023-08-06T12:46:34;4.90;;;4.47;;
16890;SDS011;8562;52.246;20.966;2023-08-06T12:48:59;5.77;;;5.23;;
16890;SDS011;8562;52.246;20.966;2023-08-06T12:51:28;5.83;;;4.80;;
16890;SDS011;8562;52.246;20.966;2023-08-06T12:53:54;5.53;;;4.93;;
16890;SDS011;8562;52.246;20.966;2023-08-06T12:56:19;6.67;;;4.57;;
16890;SDS011;8562;52.246;20.966;2023-08-06T12:58:44;5.10;;;4.60;;
16890;SDS011;8562;52.246;20.966;2023-08-06T13:01:09;4.73;;;4.27;;
16890;SDS011;8562;52.246;20.966;2023-08-06T13:03:35;6.33;;;5.17;;
16890;SDS011;8562;52.246;20.966;2023-08-06T13:06:00;4.83;;;4.20;;
16890;SDS011;8562;52.246;20.966;2023-08-06T13:08:25;4.93;;;4.43;;
16890;SDS011;8562;52.246;20.966;2023-08-06T13:10:51;4.30;;;3.90;;
16890;SDS011;8562;52.246;20.966;2023-08-06T13:13:16;4.93;;;4.30;;
16890;SDS011;8562;52.246;20.966;2023-08-06T13:15:41;4.50;;;4.10;;
16890;SDS011;8562;52.246;20.966;2023-08-06T13:18:06;4.90;;;3.90;;
16890;SDS011;8562;52.246;20.966;2023-08-06T13:20:32;4.27;;;3.80;;
16890;SDS011;8562;52.246;20.966;2023-08-06T13:22:58;4.17;;;3.77;;
16890;SDS011;8562;52.246;20.966;2023-08-06T13:25:23;5.10;;;3.67;;
16890;SDS011;8562;52.246;20.966;2023-08-06T13:27:48;4.37;;;3.97;;
16890;SDS011;8562;52.246;20.966;2023-08-06T13:30:13;6.93;;;4.33;;
16890;SDS011;8562;52.246;20.966;2023-08-06T13:32:39;4.80;;;3.77;;
16890;SDS011;8562;52.246;20.966;2023-08-06T13:35:04;5.33;;;4.77;;
16890;SDS011;8562;52.246;20.966;2023-08-06T13:37:29;7.80;;;4.63;;
16890;SDS011;8562;52.246;20.966;2023-08-06T13:39:55;4.60;;;4.10;;
16890;SDS011;8562;52.246;20.966;2023-08-06T13:42:20;4.33;;;3.93;;
16890;SDS011;8562;52.246;20.966;2023-08-06T13:44:45;5.20;;;3.40;;
16890;SDS011;8562;52.246;20.966;2023-08-06T13:47:11;4.67;;;4.10;;
16890;SDS011;8562;52.246;20.966;2023-08-06T13:49:36;4.93;;;3.80;;
16890;SDS011;8562;52.246;20.966;2023-08-06T13:52:01;3.93;;;3.33;;
16890;SDS011;8562;52.246;20.966;2023-08-06T13:54:27;4.33;;;3.83;;
16890;SDS011;8562;52.246;20.966;2023-08-06T13:56:52;4.67;;;3.90;;
16890;SDS011;8562;52.246;20.966;2023-08-06T13:59:18;4.40;;;3.57;;
16890;SDS011;8562;52.246;20.966;2023-08-06T14:01:45;4.53;;;4.13;;
16890;SDS011;8562;52.246;20.966;2023-08-06T14:04:10;3.87;;;3.50;;
16890;SDS011;8562;52.246;20.966;2023-08-06T14:06:35;6.70;;;3.97;;
16890;SDS011;8562;52.246;20.966;2023-08-06T14:09:01;4.33;;;3.80;;
16890;SDS011;8562;52.246;20.966;2023-08-06T14:11:26;7.67;;;3.80;;
16890;SDS011;8562;52.246;20.966;2023-08-06T14:13:51;4.83;;;4.13;;
16890;SDS011;8562;52.246;20.966;2023-08-06T14:16:17;5.90;;;4.10;;
16890;SDS011;8562;52.246;20.966;2023-08-06T14:18:42;4.27;;;3.87;;
16890;SDS011;8562;52.246;20.966;2023-08-06T14:21:07;4.20;;;3.80;;
16890;SDS011;8562;52.246;20.966;2023-08-06T14:23:33;4.33;;;3.93;;
16890;SDS011;8562;52.246;20.966;2023-08-06T14:25:58;4.07;;;3.67;;
16890;SDS011;8562;52.246;20.966;2023-08-06T14:28:24;4.23;;;3.70;;
16890;SDS011;8562;52.246;20.966;2023-08-06T14:30:49;4.73;;;3.40;;
16890;SDS011;8562;52.246;20.966;2023-08-06T14:33:14;4.27;;;3.27;;
16890;SDS011;8562;52.246;20.966;2023-08-06T14:35:39;2.90;;;2.70;;
16890;SDS011;8562;52.246;20.966;2023-08-06T14:38:05;3.37;;;2.90;;
16890;SDS011;8562;52.246;20.966;2023-08-06T14:40:30;3.73;;;3.20;;
16890;SDS011;8562;52.246;20.966;2023-08-06T14:43:00;3.00;;;2.80;;
16890;SDS011;8562;52.246;20.966;2023-08-06T14:45:25;3.80;;;2.80;;